Time;durP1;ratioP1;P1;durP2;ratioP2;P2;SDS_P1;SDS_P2;PMS_P1;PMS_P2;Temp;Humidity;BMP_temperature;BMP_pressure;BME280_temperature;BME280_humidity;BME280_pressure;Samples;Min_cycle;Max_cycle;Signal;HPM_P1;HPM_P2
2023/05/07 17:20:00;;;;;;;6.47;3.67;;;17.80;99.90;;;;;;5031114;28;20346;-64
2023/05/07 17:22:26;;;;;;;6.00;3.63;;;17.60;99.90;;;;;;5028139;28;20478;-67
2023/05/07 17:24:51;;;;;;;6.68;3.85;;;17.60;99.90;;;;;;5027895;28;20037;-62
2023/05/07 17:27:17;;;;;;;5.68;3.67;;;17.70;99.90;;;;;;5026998;28;20504;-68
2023/05/07 17:29:43;;;;;;;7.35;3.97;;;17.70;99.90;;;;;;5036968;28;20545;-68
2023/05/07 17:32:08;;;;;;;6.45;4.05;;;17.70;99.90;;;;;;5047801;28;20029;-66
2023/05/07 17:34:34;;;;;;;7.70;4.35;;;17.70;99.90;;;;;;5047175;28;20028;-68
2023/05/07 17:36:59;;;;;;;6.95;4.40;;;17.60;99.90;;;;;;5047542;28;20014;-64
2023/05/07 17:39:25;;;;;;;7.07;4.38;;;17.70;99.90;;;;;;5047991;28;20430;-69
2023/05/07 17:41:51;;;;;;;7.40;4.57;;;17.70;99.90;;;;;;5047149;28;20116;-62
2023/05/07 17:44:17;;;;;;;6.65;4.43;;;17.70;99.90;;;;;;5048256;28;20537;-65
2023/05/07 17:46:42;;;;;;;10.05;7.53;;;17.80;99.90;;;;;;5047743;28;20083;-64
2023/05/07 17:49:08;;;;;;;39.50;31.98;;;17.80;99.90;;;;;;5046785;28;20025;-65
2023/05/07 17:51:34;;;;;;;44.35;35.55;;;17.80;99.90;;;;;;5047749;28;20057;-66
2023/05/07 17:53:59;;;;;;;40.55;31.95;;;17.80;99.90;;;;;;5047441;28;20021;-63
2023/05/07 17:56:25;;;;;;;25.73;22.55;;;17.80;99.90;;;;;;5047200;28;20419;-65
2023/05/07 17:58:53;;;;;;;14.20;9.70;;;17.80;99.90;;;;;;5044799;28;20033;-64
2023/05/07 18:01:20;;;;;;;9.52;6.07;;;17.80;99.90;;;;;;5043015;28;20025;-64
2023/05/07 18:03:46;;;;;;;6.50;4.72;;;17.70;99.90;;;;;;5046617;28;20021;-62
2023/05/07 18:06:16;;;;;;;6.18;4.80;;;17.70;99.90;;;;;;5046033;28;20067;-65
2023/05/07 18:08:43;;;;;;;8.38;4.80;;;17.50;99.90;;;;;;5045906;28;20057;-65
2023/05/07 18:11:09;;;;;;;8.65;6.05;;;17.50;99.90;;;;;;5045651;28;20028;-63
2023/05/07 18:13:34;;;;;;;9.57;5.28;;;17.50;99.90;;;;;;5046733;28;20021;-66
2023/05/07 18:16:00;;;;;;;9.05;5.10;;;17.50;99.90;;;;;;5046429;28;20516;-65
2023/05/07 18:18:29;;;;;;;8.23;5.30;;;17.50;99.90;;;;;;5055336;28;20052;-64
2023/05/07 18:20:56;;;;;;;8.10;4.85;;;17.40;99.90;;;;;;5048389;28;20025;-65
2023/05/07 18:23:22;;;;;;;10.57;5.50;;;17.40;99.90;;;;;;5066534;28;20075;-63
2023/05/07 18:25:47;;;;;;;8.63;5.32;;;17.40;99.90;;;;;;5067190;28;20021;-62
2023/05/07 18:28:13;;;;;;;8.90;4.93;;;17.40;99.90;;;;;;5067058;28;20071;-63
2023/05/07 18:30:38;;;;;;;9.45;5.68;;;17.40;99.90;;;;;;5056786;28;20095;-63
2023/05/07 18:33:05;;;;;;;10.85;5.78;;;17.30;99.90;;;;;;5053495;28;20385;-63
2023/05/07 18:35:31;;;;;;;10.23;4.88;;;17.20;99.90;;;;;;5053696;28;20021;-62
2023/05/07 18:37:57;;;;;;;8.15;5.40;;;17.10;99.90;;;;;;5053061;28;20036;-64
2023/05/07 18:40:23;;;;;;;10.20;6.28;;;17.00;99.90;;;;;;5053122;28;20025;-62
2023/05/07 18:42:48;;;;;;;8.55;5.88;;;16.90;99.90;;;;;;5036203;28;20650;-65
2023/05/07 18:45:14;;;;;;;8.27;5.50;;;16.90;99.90;;;;;;5034790;28;20025;-62
2023/05/07 18:47:40;;;;;;;7.70;5.35;;;16.80;99.90;;;;;;5054109;28;20021;-65
2023/05/07 18:50:06;;;;;;;10.55;5.38;;;16.90;99.90;;;;;;5048724;28;20060;-65
2023/05/07 18:52:31;;;;;;;9.38;5.93;;;16.90;99.90;;;;;;5035127;28;20022;-62
2023/05/07 18:54:57;;;;;;;7.97;5.75;;;16.90;99.90;;;;;;5033306;28;20033;-62
2023/05/07 18:57:23;;;;;;;9.90;6.50;;;17.00;99.90;;;;;;5039959;28;20557;-61
2023/05/07 18:59:52;;;;;;;8.85;5.22;;;16.90;99.90;;;;;;5039543;28;20038;-63
2023/05/07 19:02:18;;;;;;;9.68;5.60;;;16.90;99.90;;;;;;5035372;28;20418;-62
2023/05/07 19:04:43;;;;;;;8.77;5.63;;;16.90;99.90;;;;;;5031421;28;20474;-62
2023/05/07 19:07:09;;;;;;;9.02;6.22;;;16.80;99.90;;;;;;5036640;28;20493;-66
2023/05/07 19:09:35;;;;;;;10.20;6.43;;;16.80;99.90;;;;;;5029149;28;20091;-65
2023/05/07 19:12:01;;;;;;;9.07;6.53;;;16.70;99.90;;;;;;5033183;28;20027;-66
2023/05/07 19:14:26;;;;;;;8.25;5.70;;;16.70;99.90;;;;;;5033097;28;20017;-67
2023/05/07 19:16:52;;;;;;;9.20;5.57;;;16.60;99.90;;;;;;5016304;28;20063;-65
2023/05/07 19:19:18;;;;;;;9.02;6.18;;;16.70;99.90;;;;;;5028564;28;20045;-66
2023/05/07 19:21:44;;;;;;;8.02;5.43;;;16.60;99.90;;;;;;5031074;28;20493;-62
2023/05/07 19:24:09;;;;;;;9.75;6.20;;;16.60;99.90;;;;;;5045869;28;20440;-62
2023/05/07 19:26:36;;;;;;;9.45;5.95;;;16.50;99.90;;;;;;5031109;28;20381;-63
2023/05/07 19:29:01;;;;;;;10.05;6.32;;;16.50;99.90;;;;;;5029426;28;20055;-61
2023/05/07 19:31:27;;;;;;;8.82;6.07;;;16.40;99.90;;;;;;5034682;28;20048;-62
2023/05/07 19:33:53;;;;;;;10.88;6.15;;;16.40;99.90;;;;;;5032207;28;20025;-62
2023/05/07 19:36:19;;;;;;;9.63;6.95;;;16.40;99.90;;;;;;5033147;28;20044;-61
2023/05/07 19:38:45;;;;;;;7.80;5.55;;;16.40;99.90;;;;;;5033035;28;20064;-61
2023/05/07 19:41:11;;;;;;;8.00;5.57;;;16.40;99.90;;;;;;5014063;28;20121;-62
2023/05/07 19:43:38;;;;;;;8.73;6.70;;;16.30;99.90;;;;;;5032654;28;21071;-63
2023/05/07 19:46:05;;;;;;;8.75;5.70;;;16.40;99.90;;;;;;5015098;28;20112;-61
2023/05/07 19:48:31;;;;;;;8.88;5.90;;;16.40;99.90;;;;;;5014957;28;20561;-67
